createdAt,value
2019-02-21T00:02:01.360Z,56.40
2019-02-21T00:04:31.015Z,54.50
2019-02-21T00:07:01.079Z,54.00
2019-02-21T00:09:30.978Z,54.60
2019-02-21T00:12:00.636Z,55.30
2019-02-21T00:14:30.308Z,54.50
2019-02-21T00:16:59.887Z,57.00
2019-02-21T00:19:29.594Z,56.60
2019-02-21T00:21:59.097Z,56.20
2019-02-21T00:24:28.908Z,56.40
2019-02-21T00:26:58.858Z,53.60
2019-02-21T00:29:28.968Z,53.50
2019-02-21T00:31:58.739Z,55.60
2019-02-21T00:34:28.697Z,53.80
2019-02-21T00:36:58.611Z,54.60
2019-02-21T00:39:28.270Z,54.20
2019-02-21T00:41:57.923Z,54.10
2019-02-21T00:44:27.840Z,53.90
2019-02-21T00:46:57.793Z,55.90
2019-02-21T00:49:27.880Z,54.70
2019-02-21T00:51:57.528Z,54.50
2019-02-21T00:54:27.272Z,55.10
2019-02-21T00:56:57.319Z,55.00
2019-02-21T00:59:27.326Z,56.00
2019-02-21T01:01:56.988Z,56.40
2019-02-21T01:04:26.973Z,55.60
2019-02-21T01:06:57.076Z,56.40
2019-02-21T01:09:27.087Z,56.00
2019-02-21T01:11:56.686Z,54.10
2019-02-21T01:14:26.358Z,54.70
2019-02-21T01:16:55.937Z,54.40
2019-02-21T01:19:25.686Z,54.30
2019-02-21T01:21:55.193Z,57.00
2019-02-21T01:24:24.753Z,55.00
2019-02-21T01:26:54.654Z,55.20
2019-02-21T01:29:24.355Z,56.00
2019-02-21T01:31:55.407Z,54.40
2019-02-21T01:34:25.067Z,55.10
2019-02-21T01:36:54.719Z,57.50
2019-02-21T01:39:24.848Z,55.40
2019-02-21T01:41:54.628Z,54.70
2019-02-21T01:44:24.210Z,55.20
2019-02-21T01:46:53.801Z,53.80
2019-02-21T01:49:24.520Z,56.00
2019-02-21T01:51:54.227Z,54.00
2019-02-21T01:54:23.906Z,54.00
2019-02-21T01:56:53.610Z,54.60
2019-02-21T01:59:23.209Z,53.90
2019-02-21T02:01:52.943Z,53.80
2019-02-21T02:04:22.524Z,55.20
2019-02-21T02:06:52.479Z,55.00
2019-02-21T02:09:22.354Z,54.90
2019-02-21T02:11:52.098Z,54.50
2019-02-21T02:14:21.613Z,54.50
2019-02-21T02:16:51.373Z,55.60
2019-02-21T02:19:21.086Z,54.50
2019-02-21T02:21:50.747Z,54.90
2019-02-21T02:24:20.476Z,58.00
2019-02-21T02:26:50.157Z,56.10
2019-02-21T02:29:20.037Z,54.40
2019-02-21T02:31:49.674Z,54.70
2019-02-21T02:34:19.426Z,55.00
2019-02-21T02:36:49.233Z,54.80
2019-02-21T02:39:18.888Z,56.50
2019-02-21T02:41:48.850Z,56.40
2019-02-21T02:44:18.464Z,57.20
2019-02-21T02:46:48.184Z,53.20
2019-02-21T02:49:17.848Z,54.80
2019-02-21T02:51:47.544Z,54.10
2019-02-21T02:54:17.290Z,56.40
2019-02-21T02:56:46.868Z,57.00
2019-02-21T02:59:16.530Z,56.10
2019-02-21T03:01:46.495Z,55.20
2019-02-21T03:04:16.685Z,55.60
2019-02-21T03:06:46.364Z,56.20
2019-02-21T03:09:16.364Z,54.80
2019-02-21T03:11:45.933Z,55.60
2019-02-21T03:14:15.600Z,54.10
2019-02-21T03:16:45.284Z,53.90
2019-02-21T03:19:15.293Z,54.00
2019-02-21T03:21:45.297Z,55.70
2019-02-21T03:24:15.231Z,54.10
2019-02-21T03:26:44.957Z,55.50
2019-02-21T03:29:14.638Z,55.20
2019-02-21T03:31:54.261Z,57.00
2019-02-21T03:34:15.468Z,55.30
2019-02-21T03:36:45.107Z,55.60
2019-02-21T03:39:14.792Z,56.20
2019-02-21T03:41:44.844Z,55.00
2019-02-21T03:44:14.405Z,57.30
2019-02-21T03:46:44.142Z,58.10
2019-02-21T03:49:13.877Z,56.30
2019-02-21T03:51:43.864Z,54.20
2019-02-21T03:54:13.576Z,55.40
2019-02-21T03:56:43.243Z,54.90
2019-02-21T03:59:13.318Z,55.00
2019-02-21T04:01:42.990Z,55.40
2019-02-21T04:04:13.034Z,55.40
2019-02-21T04:06:42.699Z,57.20
2019-02-21T04:09:12.774Z,55.60
2019-02-21T04:11:42.487Z,56.90
2019-02-21T04:14:12.243Z,56.20
2019-02-21T04:16:42.089Z,56.70
2019-02-21T04:19:11.823Z,55.60
2019-02-21T04:21:41.492Z,57.20
2019-02-21T04:24:11.140Z,56.20
2019-02-21T04:26:40.874Z,55.20
2019-02-21T04:29:10.743Z,56.80
2019-02-21T04:31:40.758Z,56.80
2019-02-21T04:34:10.915Z,55.40
2019-02-21T04:36:40.613Z,54.50
2019-02-21T04:39:10.618Z,55.30
2019-02-21T04:41:40.276Z,54.60
2019-02-21T04:44:10.331Z,53.80
2019-02-21T04:46:39.988Z,54.70
2019-02-21T04:49:10.065Z,57.50
2019-02-21T04:51:39.673Z,54.90
2019-02-21T04:54:09.267Z,55.60
2019-02-21T04:56:38.855Z,54.60
2019-02-21T04:59:08.498Z,55.30
2019-02-21T05:01:40.307Z,55.40
2019-02-21T05:04:09.318Z,55.10
2019-02-21T05:06:39.362Z,54.60
2019-02-21T05:09:09.003Z,54.90
2019-02-21T05:11:38.588Z,56.40
2019-02-21T05:14:08.262Z,54.60
2019-02-21T05:16:37.840Z,54.20
2019-02-21T05:19:07.427Z,54.70
2019-02-21T05:21:37.022Z,53.30
2019-02-21T05:24:08.046Z,54.30
2019-02-21T05:26:39.627Z,56.10
2019-02-21T05:29:10.903Z,55.10
2019-02-21T05:31:54.202Z,54.80
2019-02-21T05:34:41.536Z,55.60
2019-02-21T05:37:13.254Z,57.00
2019-02-21T05:39:44.483Z,57.40
2019-02-21T05:42:16.159Z,56.00
2019-02-21T05:44:53.737Z,56.90
2019-02-21T05:47:27.805Z,54.00
2019-02-21T05:50:17.688Z,53.90
2019-02-21T05:52:49.062Z,54.40
2019-02-21T05:55:35.851Z,56.00
2019-02-21T05:58:07.075Z,56.80
2019-02-21T06:00:41.519Z,55.30
2019-02-21T06:03:25.317Z,56.10
2019-02-21T06:06:13.165Z,56.50
2019-02-21T06:08:44.824Z,56.90
2019-02-21T06:11:18.951Z,61.80
2019-02-21T06:13:59.391Z,67.00
2019-02-21T06:16:36.659Z,69.60
2019-02-21T06:19:35.895Z,71.90
2019-02-21T06:22:10.861Z,73.30
2019-02-21T06:24:42.370Z,74.20
2019-02-21T06:27:13.607Z,74.20
2019-02-21T06:29:47.930Z,72.90
2019-02-21T06:32:17.532Z,72.10
2019-02-21T06:34:47.476Z,71.90
2019-02-21T06:37:17.181Z,71.80
2019-02-21T06:39:46.773Z,70.50
2019-02-21T06:42:16.409Z,70.70
2019-02-21T06:44:46.086Z,69.70
2019-02-21T06:47:15.830Z,70.30
2019-02-21T06:49:45.522Z,71.40
2019-02-21T06:52:15.750Z,71.70
2019-02-21T06:54:45.754Z,72.30
2019-02-21T06:57:15.780Z,72.30
2019-02-21T06:59:45.777Z,72.50
2019-02-21T07:02:15.439Z,72.10
2019-02-21T07:04:45.401Z,72.00
2019-02-21T07:07:15.511Z,71.40
2019-02-21T07:09:45.230Z,70.40
2019-02-21T07:12:14.955Z,70.40
2019-02-21T07:14:44.598Z,70.30
2019-02-21T07:17:14.257Z,69.90
2019-02-21T07:19:44.277Z,69.30
2019-02-21T07:22:17.634Z,66.90
2019-02-21T07:24:46.454Z,65.90
2019-02-21T07:27:15.986Z,65.00
2019-02-21T07:29:45.785Z,64.80
2019-02-21T07:32:15.793Z,64.60
2019-02-21T07:34:45.709Z,64.00
2019-02-21T07:37:18.634Z,62.10
2019-02-21T07:39:46.859Z,59.70
2019-02-21T07:42:16.562Z,57.90
2019-02-21T07:44:46.262Z,54.70
2019-02-21T07:47:15.831Z,52.30
2019-02-21T07:49:45.546Z,50.50
2019-02-21T07:52:15.284Z,48.70
2019-02-21T07:54:45.231Z,47.30
2019-02-21T07:57:14.887Z,47.40
2019-02-21T07:59:44.540Z,47.60
2019-02-21T08:02:14.561Z,46.40
2019-02-21T08:04:44.265Z,47.80
2019-02-21T08:07:13.853Z,46.50
2019-02-21T08:09:43.516Z,45.80
2019-02-21T08:12:13.604Z,44.80
2019-02-21T08:14:43.474Z,43.00
2019-02-21T08:17:13.189Z,41.00
2019-02-21T08:19:42.811Z,40.80
2019-02-21T08:22:12.386Z,42.10
2019-02-21T08:24:42.009Z,40.70
2019-02-21T08:27:12.769Z,38.50
2019-02-21T08:29:42.803Z,37.70
2019-02-21T08:32:13.960Z,36.60
2019-02-21T08:34:48.061Z,34.80
2019-02-21T08:37:16.935Z,34.10
2019-02-21T08:39:46.650Z,33.50
2019-02-21T08:42:16.156Z,33.00
2019-02-21T08:44:45.746Z,31.60
2019-02-21T08:47:15.351Z,31.40
2019-02-21T08:49:44.879Z,32.50
2019-02-21T08:52:14.474Z,33.30
2019-02-21T08:54:44.365Z,32.10
2019-02-21T08:57:14.073Z,30.40
2019-02-21T08:59:44.131Z,30.00
2019-02-21T09:02:13.959Z,29.30
2019-02-21T09:04:43.491Z,28.40
2019-02-21T09:07:13.472Z,28.80
2019-02-21T09:09:44.673Z,28.10
2019-02-21T09:12:14.356Z,27.50
2019-02-21T09:14:43.884Z,27.30
2019-02-21T09:17:13.849Z,27.60
2019-02-21T09:19:45.062Z,27.40
2019-02-21T09:22:14.593Z,27.80
2019-02-21T09:24:44.250Z,27.80
2019-02-21T09:27:14.229Z,27.10
2019-02-21T09:29:43.867Z,26.70
2019-02-21T09:32:13.620Z,26.60
2019-02-21T09:34:43.489Z,26.60
2019-02-21T09:37:13.209Z,26.40
2019-02-21T09:39:42.726Z,26.00
2019-02-21T09:42:12.679Z,25.90
2019-02-21T09:44:42.339Z,25.50
2019-02-21T09:47:12.041Z,25.10
2019-02-21T09:49:41.718Z,25.10
2019-02-21T09:52:11.359Z,24.90
2019-02-21T09:54:40.935Z,24.70
2019-02-21T09:57:13.455Z,24.60
2019-02-21T09:59:41.859Z,23.80
2019-02-21T10:02:11.917Z,23.70
2019-02-21T10:04:41.483Z,23.80
2019-02-21T10:07:11.061Z,23.60
2019-02-21T10:09:40.730Z,23.30
2019-02-21T10:12:10.412Z,22.60
2019-02-21T10:14:41.106Z,22.70
2019-02-21T10:17:11.090Z,23.30
2019-02-21T10:19:40.730Z,22.90
2019-02-21T10:22:11.193Z,22.70
2019-02-21T10:24:41.022Z,21.70
2019-02-21T10:27:10.614Z,21.60
2019-02-21T10:29:40.344Z,22.10
2019-02-21T10:32:10.269Z,21.40
2019-02-21T10:34:43.060Z,22.00
2019-02-21T10:37:11.329Z,21.70
2019-02-21T10:39:41.187Z,21.20
2019-02-21T10:42:10.854Z,21.50
2019-02-21T10:44:40.586Z,21.10
2019-02-21T10:47:10.259Z,20.20
2019-02-21T10:49:39.897Z,21.20
2019-02-21T10:52:09.577Z,21.40
2019-02-21T10:54:39.477Z,21.00
2019-02-21T10:57:09.138Z,21.30
2019-02-21T10:59:46.144Z,21.70
2019-02-21T11:02:10.361Z,20.90
2019-02-21T11:04:42.145Z,20.70
2019-02-21T11:07:11.265Z,20.50
2019-02-21T11:09:41.345Z,20.00
2019-02-21T11:12:10.985Z,20.10
2019-02-21T11:14:47.604Z,20.00
2019-02-21T11:17:11.850Z,19.80
2019-02-21T11:19:41.433Z,19.80
2019-02-21T11:22:11.174Z,20.00
2019-02-21T11:24:41.151Z,20.30
2019-02-21T11:27:10.883Z,20.00
2019-02-21T11:29:40.472Z,20.20
2019-02-21T11:32:10.121Z,20.40
2019-02-21T11:34:40.190Z,20.70
2019-02-21T11:37:09.846Z,21.10
2019-02-21T11:39:39.476Z,21.60
2019-02-21T11:42:09.040Z,24.20
2019-02-21T11:44:38.707Z,26.80
2019-02-21T11:47:08.305Z,30.00
2019-02-21T11:49:37.937Z,32.70
2019-02-21T11:52:10.240Z,35.30
2019-02-21T11:54:38.856Z,36.70
2019-02-21T11:57:08.576Z,38.20
2019-02-21T11:59:38.613Z,39.60
2019-02-21T12:02:08.267Z,41.70
2019-02-21T12:04:37.888Z,40.50
2019-02-21T12:07:07.932Z,41.10
2019-02-21T12:09:37.560Z,41.90
2019-02-21T12:12:10.459Z,41.50
2019-02-21T12:14:40.089Z,41.80
2019-02-21T12:17:10.068Z,40.90
2019-02-21T12:19:39.661Z,41.10
2019-02-21T12:22:09.241Z,42.50
2019-02-21T12:24:39.200Z,42.40
2019-02-21T12:27:09.211Z,42.80
2019-02-21T12:29:38.726Z,44.10
2019-02-21T12:32:08.950Z,43.50
2019-02-21T12:34:38.605Z,42.60
2019-02-21T12:37:08.288Z,43.80
2019-02-21T12:39:38.002Z,43.10
2019-02-21T12:42:07.951Z,42.80
2019-02-21T12:44:37.918Z,43.10
2019-02-21T12:47:07.507Z,43.20
2019-02-21T12:49:37.116Z,42.80
2019-02-21T12:52:06.806Z,42.00
2019-02-21T12:54:36.694Z,42.20
2019-02-21T12:57:06.704Z,40.50
2019-02-21T12:59:36.314Z,43.40
2019-02-21T13:02:06.372Z,42.70
2019-02-21T13:04:36.444Z,41.90
2019-02-21T13:07:06.058Z,43.30
2019-02-21T13:09:35.730Z,42.90
2019-02-21T13:12:05.321Z,42.50
2019-02-21T13:14:34.911Z,44.30
2019-02-21T13:17:04.565Z,42.80
2019-02-21T13:19:34.231Z,42.00
2019-02-21T13:22:03.913Z,42.00
2019-02-21T13:24:33.876Z,39.10
2019-02-21T13:27:03.440Z,36.90
2019-02-21T13:29:33.179Z,36.80
2019-02-21T13:32:02.849Z,37.60
2019-02-21T13:34:32.419Z,39.20
2019-02-21T13:37:02.008Z,39.80
2019-02-21T13:39:31.628Z,38.40
2019-02-21T13:42:01.286Z,38.30
2019-02-21T13:44:30.957Z,40.30
2019-02-21T13:47:00.621Z,40.10
2019-02-21T13:49:30.662Z,39.60
2019-02-21T13:52:00.252Z,40.60
2019-02-21T13:54:30.191Z,40.20
2019-02-21T13:57:00.876Z,40.70
2019-02-21T13:59:30.543Z,41.20
2019-02-21T14:02:00.274Z,40.10
2019-02-21T14:04:30.248Z,39.60
2019-02-21T14:07:00.169Z,39.40
2019-02-21T14:09:29.873Z,40.00
2019-02-21T14:11:59.888Z,40.40
2019-02-21T14:14:30.920Z,41.00
2019-02-21T14:17:00.720Z,40.20
2019-02-21T14:19:30.240Z,41.20
2019-02-21T14:22:00.008Z,40.10
2019-02-21T14:24:36.732Z,40.20
2019-02-21T14:27:01.618Z,40.30
2019-02-21T14:29:38.777Z,40.00
2019-02-21T14:32:02.507Z,40.20
2019-02-21T14:34:32.096Z,40.40
2019-02-21T14:37:01.845Z,41.00
2019-02-21T14:39:32.840Z,40.90
2019-02-21T14:42:04.326Z,40.80
2019-02-21T14:44:33.917Z,40.80
2019-02-21T14:47:03.905Z,41.10
2019-02-21T14:49:33.499Z,40.90
2019-02-21T14:52:03.313Z,40.70
2019-02-21T14:54:32.989Z,40.90
2019-02-21T14:57:02.565Z,41.50
2019-02-21T14:59:32.196Z,41.20
2019-02-21T15:02:01.829Z,42.10
2019-02-21T15:04:31.502Z,42.50
2019-02-21T15:07:01.391Z,43.30
2019-02-21T15:09:31.523Z,43.70
2019-02-21T15:12:01.081Z,43.90
2019-02-21T15:14:30.726Z,43.90
2019-02-21T15:17:00.744Z,44.60
2019-02-21T15:19:30.415Z,44.30
2019-02-21T15:22:00.096Z,44.70
2019-02-21T15:24:29.829Z,44.80
2019-02-21T15:27:08.095Z,44.30
2019-02-21T15:29:31.142Z,44.70
2019-02-21T15:32:10.752Z,45.30
2019-02-21T15:34:32.096Z,45.00
2019-02-21T15:37:02.217Z,44.50
2019-02-21T15:39:32.338Z,44.80
2019-02-21T15:42:01.921Z,45.10
2019-02-21T15:44:31.453Z,45.20
2019-02-21T15:47:01.460Z,45.20
2019-02-21T15:49:31.071Z,45.50
2019-02-21T15:52:01.720Z,45.40
2019-02-21T15:54:31.390Z,45.60
2019-02-21T15:57:01.235Z,45.70
2019-02-21T15:59:30.879Z,46.20
2019-02-21T16:02:00.458Z,45.80
2019-02-21T16:04:30.165Z,45.80
2019-02-21T16:06:59.802Z,46.00
2019-02-21T16:09:29.388Z,46.40
2019-02-21T16:11:59.079Z,46.60
2019-02-21T16:14:28.668Z,46.80
2019-02-21T16:16:58.243Z,47.20
2019-02-21T16:19:27.943Z,47.90
2019-02-21T16:21:57.632Z,48.30
2019-02-21T16:24:27.287Z,48.60
2019-02-21T16:26:57.185Z,49.40
2019-02-21T16:29:27.042Z,50.10
2019-02-21T16:31:56.671Z,50.30
2019-02-21T16:34:26.377Z,50.90
2019-02-21T16:37:02.496Z,51.60
2019-02-21T16:39:27.390Z,51.80
2019-02-21T16:41:56.996Z,52.60
2019-02-21T16:44:27.041Z,53.20
2019-02-21T16:46:56.930Z,53.70
2019-02-21T16:49:26.920Z,54.20
2019-02-21T16:51:56.592Z,54.70
2019-02-21T16:54:26.171Z,55.30
2019-02-21T16:56:56.218Z,55.50
2019-02-21T16:59:25.884Z,55.70
2019-02-21T17:01:55.801Z,56.20
2019-02-21T17:04:25.752Z,56.60
2019-02-21T17:06:55.491Z,57.00
2019-02-21T17:09:25.143Z,57.40
2019-02-21T17:11:54.812Z,57.00
2019-02-21T17:14:24.466Z,57.80
2019-02-21T17:16:54.507Z,57.70
2019-02-21T17:19:24.160Z,57.80
2019-02-21T17:21:54.127Z,57.80
2019-02-21T17:24:23.853Z,58.30
2019-02-21T17:26:53.965Z,58.50
2019-02-21T17:29:23.557Z,59.00
2019-02-21T17:31:53.248Z,59.30
2019-02-21T17:34:22.864Z,58.70
2019-02-21T17:36:52.586Z,58.60
2019-02-21T17:39:22.631Z,59.00
2019-02-21T17:41:52.184Z,58.80
2019-02-21T17:44:22.330Z,59.10
2019-02-21T17:46:53.211Z,59.20
2019-02-21T17:49:22.859Z,58.90
2019-02-21T17:51:53.902Z,58.90
2019-02-21T17:54:25.087Z,59.10
2019-02-21T17:56:54.968Z,59.40
2019-02-21T17:59:25.696Z,59.20
2019-02-21T18:01:56.414Z,58.90
2019-02-21T18:04:26.153Z,59.30
2019-02-21T18:06:55.693Z,59.70
2019-02-21T18:09:25.428Z,59.50
2019-02-21T18:11:55.024Z,59.70
2019-02-21T18:14:24.774Z,59.60
2019-02-21T18:16:54.442Z,59.50
2019-02-21T18:19:24.155Z,59.60
2019-02-21T18:21:53.676Z,59.70
2019-02-21T18:24:23.313Z,60.00
2019-02-21T18:26:53.258Z,59.80
2019-02-21T18:29:23.357Z,60.10
2019-02-21T18:31:53.137Z,60.00
2019-02-21T18:34:23.093Z,60.20
2019-02-21T18:36:53.103Z,60.50
2019-02-21T18:39:23.110Z,60.80
2019-02-21T18:41:53.141Z,60.50
2019-02-21T18:44:22.793Z,60.30
2019-02-21T18:46:52.537Z,60.50
2019-02-21T18:49:22.244Z,61.00
2019-02-21T18:51:51.841Z,61.30
2019-02-21T18:54:21.895Z,61.40
2019-02-21T18:56:51.559Z,61.80
2019-02-21T18:59:31.124Z,61.90
2019-02-21T19:01:52.748Z,62.00
2019-02-21T19:04:22.488Z,61.10
2019-02-21T19:06:52.087Z,60.60
2019-02-21T19:09:22.208Z,61.40
2019-02-21T19:11:51.846Z,61.80
2019-02-21T19:14:21.822Z,61.40
2019-02-21T19:16:51.489Z,62.20
2019-02-21T19:19:21.139Z,61.30
2019-02-21T19:21:50.934Z,62.10
2019-02-21T19:24:20.969Z,61.90
2019-02-21T19:26:50.995Z,61.60
2019-02-21T19:29:20.639Z,61.60
2019-02-21T19:31:50.214Z,62.50
2019-02-21T19:34:19.967Z,63.20
2019-02-21T19:36:49.931Z,63.40
2019-02-21T19:39:21.085Z,63.00
2019-02-21T19:41:50.803Z,63.40
2019-02-21T19:44:20.903Z,63.80
2019-02-21T19:46:50.669Z,63.90
2019-02-21T19:49:20.745Z,63.90
2019-02-21T19:51:50.554Z,63.90
2019-02-21T19:54:20.505Z,64.20
2019-02-21T19:56:50.172Z,64.40
2019-02-21T19:59:19.899Z,64.40
2019-02-21T20:01:50.147Z,64.90
2019-02-21T20:04:19.736Z,65.30
2019-02-21T20:06:49.242Z,65.20
2019-02-21T20:09:19.607Z,65.80
2019-02-21T20:11:49.674Z,64.70
2019-02-21T20:14:19.786Z,64.80
2019-02-21T20:16:49.703Z,65.40
2019-02-21T20:19:19.396Z,65.90
2019-02-21T20:21:49.319Z,65.40
2019-02-21T20:24:19.243Z,65.40
2019-02-21T20:26:48.915Z,65.50
2019-02-21T20:29:18.599Z,66.00
2019-02-21T20:31:49.180Z,66.40
2019-02-21T20:34:18.917Z,66.80
2019-02-21T20:36:51.365Z,66.00
2019-02-21T20:39:20.334Z,66.30
2019-02-21T20:41:50.011Z,66.40
2019-02-21T20:44:19.730Z,66.40
2019-02-21T20:46:49.814Z,66.40
2019-02-21T20:49:20.016Z,66.90
2019-02-21T20:51:50.034Z,67.30
2019-02-21T20:54:19.531Z,67.50
2019-02-21T20:56:49.064Z,66.80
2019-02-21T20:59:18.661Z,66.30
2019-02-21T21:01:48.379Z,66.40
2019-02-21T21:04:18.134Z,66.50
2019-02-21T21:06:47.865Z,66.60
2019-02-21T21:09:17.660Z,66.10
2019-02-21T21:11:47.386Z,66.20
2019-02-21T21:14:16.992Z,65.90
2019-02-21T21:16:46.744Z,65.80
2019-02-21T21:19:16.654Z,65.80
2019-02-21T21:21:46.303Z,66.10
2019-02-21T21:24:16.015Z,66.00
2019-02-21T21:26:45.735Z,67.20
2019-02-21T21:29:15.792Z,66.40
2019-02-21T21:31:45.392Z,66.00
2019-02-21T21:34:15.418Z,66.10
2019-02-21T21:36:45.220Z,65.80
2019-02-21T21:39:15.037Z,65.50
2019-02-21T21:41:44.739Z,65.20
2019-02-21T21:44:14.336Z,65.20
2019-02-21T21:46:44.074Z,66.00
2019-02-21T21:49:13.734Z,66.30
2019-02-21T21:51:43.688Z,66.60
2019-02-21T21:54:13.422Z,67.00
2019-02-21T21:56:43.375Z,68.00
2019-02-21T21:59:13.328Z,69.00
2019-02-21T22:01:43.363Z,69.30
2019-02-21T22:04:13.472Z,68.70
2019-02-21T22:06:43.213Z,69.00
2019-02-21T22:09:12.885Z,69.00
2019-02-21T22:11:42.534Z,69.10
2019-02-21T22:14:12.150Z,68.90
2019-02-21T22:16:42.168Z,68.70
2019-02-21T22:19:12.132Z,68.70
2019-02-21T22:21:41.926Z,69.40
2019-02-21T22:24:12.088Z,69.60
2019-02-21T22:26:41.659Z,70.40
2019-02-21T22:29:11.330Z,70.60
2019-02-21T22:31:41.515Z,70.40
2019-02-21T22:34:11.095Z,69.60
2019-02-21T22:36:40.593Z,69.50
2019-02-21T22:39:16.409Z,70.10
2019-02-21T22:41:41.416Z,70.40
2019-02-21T22:44:10.989Z,70.10
2019-02-21T22:46:40.804Z,72.30
2019-02-21T22:49:10.450Z,70.50
2019-02-21T22:51:40.604Z,66.80
2019-02-21T22:54:10.477Z,64.70
2019-02-21T22:56:40.101Z,62.90
2019-02-21T22:59:09.750Z,60.60
2019-02-21T23:01:39.622Z,58.80
2019-02-21T23:04:15.155Z,57.00
2019-02-21T23:06:50.781Z,57.10
2019-02-21T23:09:27.406Z,56.00
2019-02-21T23:11:53.969Z,55.00
2019-02-21T23:14:23.714Z,53.70
2019-02-21T23:16:53.688Z,54.70
2019-02-21T23:19:24.264Z,54.70
2019-02-21T23:21:53.976Z,53.60
2019-02-21T23:24:23.710Z,54.20
2019-02-21T23:26:53.435Z,54.00
2019-02-21T23:29:23.490Z,53.20
2019-02-21T23:31:53.112Z,53.80
2019-02-21T23:34:30.433Z,53.40
2019-02-21T23:37:00.495Z,51.90
2019-02-21T23:39:38.033Z,52.10
2019-02-21T23:42:01.633Z,51.80
2019-02-21T23:44:32.374Z,52.50
2019-02-21T23:47:02.399Z,51.80
2019-02-21T23:49:32.331Z,52.90
2019-02-21T23:52:01.899Z,52.30
2019-02-21T23:54:31.626Z,51.80
2019-02-21T23:57:01.541Z,52.40
2019-02-21T23:59:31.119Z,52.90
